createdAt,value
2022-08-27T00:00:46.719Z,86.56
2022-08-27T00:01:46.773Z,86.56
2022-08-27T00:02:46.702Z,86.56
2022-08-27T00:03:46.752Z,86.36
2022-08-27T00:04:46.675Z,86.26
2022-08-27T00:05:46.652Z,86.20
2022-08-27T00:06:46.652Z,86.06
2022-08-27T00:07:46.663Z,86.10
2022-08-27T00:08:46.641Z,86.06
2022-08-27T00:09:46.611Z,86.00
2022-08-27T00:10:46.635Z,85.90
2022-08-27T00:11:46.594Z,85.80
2022-08-27T00:12:46.593Z,85.80
2022-08-27T00:13:46.572Z,85.80
2022-08-27T00:14:46.565Z,85.80
2022-08-27T00:15:46.547Z,85.80
2022-08-27T00:16:46.613Z,86.10
2022-08-27T00:17:46.537Z,86.16
2022-08-27T00:18:47.880Z,86.20
2022-08-27T00:19:46.517Z,86.40
2022-08-27T00:20:46.497Z,86.40
2022-08-27T00:21:46.477Z,86.30
2022-08-27T00:22:46.498Z,86.30
2022-08-27T00:23:46.461Z,86.00
2022-08-27T00:24:49.120Z,85.90
2022-08-27T00:25:46.439Z,85.90
2022-08-27T00:26:46.437Z,86.00
2022-08-27T00:27:46.428Z,86.30
2022-08-27T00:28:46.409Z,86.40
2022-08-27T00:29:46.397Z,86.60
2022-08-27T00:30:46.381Z,86.60
2022-08-27T00:31:46.420Z,86.70
2022-08-27T00:32:47.361Z,86.90
2022-08-27T00:33:46.351Z,87.01
2022-08-27T00:34:46.342Z,87.01
2022-08-27T00:35:46.331Z,87.21
2022-08-27T00:36:46.341Z,87.41
2022-08-27T00:37:46.324Z,87.51
2022-08-27T00:38:46.304Z,87.41
2022-08-27T00:39:46.283Z,87.21
2022-08-27T00:40:46.282Z,87.10
2022-08-27T00:41:46.273Z,86.90
2022-08-27T00:42:46.264Z,87.10
2022-08-27T00:43:46.242Z,87.30
2022-08-27T00:44:46.234Z,87.30
2022-08-27T00:45:46.287Z,87.10
2022-08-27T00:46:46.255Z,86.90
2022-08-27T00:47:46.195Z,86.90
2022-08-27T00:48:46.185Z,86.90
2022-08-27T00:49:46.182Z,87.01
2022-08-27T00:50:46.167Z,87.01
2022-08-27T00:51:46.157Z,87.01
2022-08-27T00:52:46.149Z,87.01
2022-08-27T00:53:46.129Z,87.10
2022-08-27T00:54:46.127Z,87.30
2022-08-27T00:55:52.837Z,87.41
2022-08-27T00:56:51.552Z,87.51
2022-08-27T00:57:47.080Z,87.60
2022-08-27T00:58:46.089Z,87.71
2022-08-27T00:59:46.114Z,87.95
2022-08-27T01:00:46.107Z,88.05
2022-08-27T01:01:46.104Z,88.15
2022-08-27T01:02:46.041Z,88.45
2022-08-27T01:03:46.021Z,88.85
2022-08-27T01:04:46.020Z,89.15
2022-08-27T01:05:46.000Z,89.15
2022-08-27T01:06:46.001Z,89.36
2022-08-27T01:07:45.983Z,89.56
2022-08-27T01:08:45.972Z,89.86
2022-08-27T01:09:45.974Z,89.96
2022-08-27T01:10:45.953Z,90.11
2022-08-27T01:11:45.954Z,90.20
2022-08-27T01:12:45.931Z,90.41
2022-08-27T01:13:59.983Z,90.70
2022-08-27T01:14:46.969Z,91.11
2022-08-27T01:15:45.897Z,91.21
2022-08-27T01:16:45.947Z,91.31
2022-08-27T01:17:45.866Z,91.71
2022-08-27T01:18:45.885Z,91.86
2022-08-27T01:19:45.886Z,91.86
2022-08-27T01:20:45.875Z,91.96
2022-08-27T01:21:45.826Z,92.16
2022-08-27T01:22:45.825Z,92.36
2022-08-27T01:23:45.827Z,92.66
2022-08-27T01:24:45.815Z,92.86
2022-08-27T01:25:45.844Z,92.96
2022-08-27T01:26:45.787Z,93.16
2022-08-27T01:27:45.758Z,93.16
2022-08-27T01:28:45.779Z,93.21
2022-08-27T01:29:45.760Z,93.21
2022-08-27T01:30:45.759Z,93.31
2022-08-27T01:31:45.811Z,93.41
2022-08-27T01:32:45.719Z,93.51
2022-08-27T01:33:45.701Z,93.61
2022-08-27T01:34:45.691Z,93.61
2022-08-27T01:35:45.671Z,93.71
2022-08-27T01:36:45.672Z,93.71
2022-08-27T01:37:45.650Z,93.81
2022-08-27T01:38:45.640Z,93.91
2022-08-27T01:39:45.652Z,94.01
2022-08-27T01:40:45.621Z,94.21
2022-08-27T01:41:45.641Z,94.32
2022-08-27T01:42:45.594Z,94.32
2022-08-27T01:43:45.590Z,94.21
2022-08-27T01:44:45.572Z,94.21
2022-08-27T01:45:45.575Z,94.12
2022-08-27T01:46:45.630Z,94.12
2022-08-27T01:47:45.546Z,94.01
2022-08-27T01:48:45.523Z,94.12
2022-08-27T01:49:45.515Z,94.12
2022-08-27T01:50:45.515Z,94.21
2022-08-27T01:51:45.508Z,94.21
2022-08-27T01:52:45.486Z,94.12
2022-08-27T01:53:45.475Z,94.12
2022-08-27T01:54:45.472Z,94.12
2022-08-27T01:55:46.345Z,94.12
2022-08-27T01:56:45.437Z,94.21
2022-08-27T01:57:45.473Z,94.21
2022-08-27T01:58:45.418Z,94.32
2022-08-27T01:59:45.420Z,94.32
2022-08-27T02:00:45.421Z,94.32
2022-08-27T02:01:45.449Z,94.42
2022-08-27T02:02:45.378Z,94.42
2022-08-27T02:03:45.368Z,94.42
2022-08-27T02:04:45.359Z,94.52
2022-08-27T02:05:45.381Z,94.52
2022-08-27T02:06:45.338Z,94.52
2022-08-27T02:07:45.340Z,94.52
2022-08-27T02:08:45.339Z,94.52
2022-08-27T02:09:45.309Z,94.52
2022-08-27T02:10:45.361Z,94.52
2022-08-27T02:11:45.272Z,94.52
2022-08-27T02:12:45.261Z,94.46
2022-08-27T02:13:45.256Z,94.36
2022-08-27T02:14:45.264Z,94.26
2022-08-27T02:15:45.253Z,94.06
2022-08-27T02:16:52.028Z,93.96
2022-08-27T02:17:46.203Z,93.96
2022-08-27T02:18:45.205Z,93.96
2022-08-27T02:19:45.183Z,93.96
2022-08-27T02:20:45.214Z,94.06
2022-08-27T02:21:45.183Z,93.96
2022-08-27T02:22:45.164Z,93.96
2022-08-27T02:23:45.146Z,93.96
2022-08-27T02:24:45.124Z,93.96
2022-08-27T02:25:45.133Z,93.86
2022-08-27T02:26:45.148Z,93.76
2022-08-27T02:27:45.094Z,93.66
2022-08-27T02:28:45.099Z,93.66
2022-08-27T02:29:46.679Z,93.66
2022-08-27T02:30:45.082Z,93.55
2022-08-27T02:31:45.099Z,93.46
2022-08-27T02:32:45.046Z,93.35
2022-08-27T02:33:45.046Z,93.35
2022-08-27T02:34:45.027Z,93.35
2022-08-27T02:35:45.048Z,93.46
2022-08-27T02:36:44.998Z,93.55
2022-08-27T02:37:44.991Z,93.66
2022-08-27T02:38:45.023Z,93.55
2022-08-27T02:39:46.130Z,93.55
2022-08-27T02:40:44.969Z,93.46
2022-08-27T02:41:44.949Z,93.35
2022-08-27T02:42:44.935Z,93.15
2022-08-27T02:43:44.912Z,93.05
2022-08-27T02:44:44.911Z,93.05
2022-08-27T02:45:44.901Z,92.95
2022-08-27T02:46:44.929Z,92.85
2022-08-27T02:47:44.901Z,92.65
2022-08-27T02:48:44.874Z,92.45
2022-08-27T02:49:44.846Z,92.35
2022-08-27T02:50:44.853Z,92.35
2022-08-27T02:51:44.825Z,92.55
2022-08-27T02:52:44.826Z,92.65
2022-08-27T02:53:44.802Z,92.55
2022-08-27T02:54:44.814Z,92.35
2022-08-27T02:55:44.856Z,92.14
2022-08-27T02:56:44.815Z,92.14
2022-08-27T02:57:44.835Z,92.35
2022-08-27T02:58:44.746Z,92.35
2022-08-27T02:59:44.737Z,92.35
2022-08-27T03:00:44.727Z,92.35
2022-08-27T03:01:44.780Z,92.25
2022-08-27T03:02:44.755Z,92.25
2022-08-27T03:03:44.757Z,92.14
2022-08-27T03:04:44.687Z,92.14
2022-08-27T03:05:44.689Z,92.14
2022-08-27T03:06:44.719Z,92.14
2022-08-27T03:07:44.649Z,92.14
2022-08-27T03:08:53.401Z,92.14
2022-08-27T03:09:45.631Z,92.05
2022-08-27T03:10:44.618Z,92.05
2022-08-27T03:11:44.599Z,92.05
2022-08-27T03:12:44.591Z,92.05
2022-08-27T03:13:44.581Z,92.05
2022-08-27T03:14:44.559Z,91.94
2022-08-27T03:15:44.593Z,91.94
2022-08-27T03:16:44.541Z,91.85
2022-08-27T03:17:44.540Z,91.74
2022-08-27T03:18:44.523Z,91.74
2022-08-27T03:19:44.522Z,91.64
2022-08-27T03:20:44.512Z,91.54
2022-08-27T03:21:44.502Z,91.44
2022-08-27T03:22:45.500Z,91.34
2022-08-27T03:23:44.473Z,91.24
2022-08-27T03:24:44.454Z,91.24
2022-08-27T03:25:44.463Z,91.24
2022-08-27T03:26:52.820Z,91.24
2022-08-27T03:27:45.423Z,91.24
2022-08-27T03:28:44.415Z,91.34
2022-08-27T03:29:44.503Z,91.24
2022-08-27T03:30:44.404Z,91.24
2022-08-27T03:31:44.411Z,91.24
2022-08-27T03:32:44.374Z,91.14
2022-08-27T03:33:44.355Z,91.14
2022-08-27T03:34:44.346Z,91.14
2022-08-27T03:35:44.354Z,91.04
2022-08-27T03:36:44.318Z,90.94
2022-08-27T03:37:44.317Z,90.84
2022-08-27T03:38:44.305Z,90.73
2022-08-27T03:39:44.287Z,90.53
2022-08-27T03:40:44.286Z,90.53
2022-08-27T03:41:54.593Z,90.53
2022-08-27T03:42:45.253Z,90.53
2022-08-27T03:43:44.248Z,90.64
2022-08-27T03:44:44.254Z,90.53
2022-08-27T03:46:00.339Z,90.53
2022-08-27T03:46:45.325Z,90.44
2022-08-27T03:47:44.211Z,90.53
2022-08-27T03:48:44.190Z,90.44
2022-08-27T03:49:44.184Z,90.44
2022-08-27T03:50:44.173Z,90.44
2022-08-27T03:51:44.181Z,90.44
2022-08-27T03:52:44.152Z,90.44
2022-08-27T03:53:44.143Z,90.44
2022-08-27T03:54:44.130Z,90.44
2022-08-27T03:55:44.123Z,90.44
2022-08-27T03:56:44.142Z,90.53
2022-08-27T03:57:44.100Z,90.53
2022-08-27T03:58:44.083Z,90.53
2022-08-27T03:59:44.073Z,90.64
2022-08-27T04:00:44.073Z,90.73
2022-08-27T04:01:44.082Z,90.64
2022-08-27T04:02:44.058Z,90.53
2022-08-27T04:03:44.025Z,90.53
2022-08-27T04:04:44.016Z,90.53
2022-08-27T04:05:44.730Z,90.53
2022-08-27T04:06:44.030Z,90.44
2022-08-27T04:07:43.994Z,90.23
2022-08-27T04:08:43.966Z,89.83
2022-08-27T04:09:43.967Z,89.67
2022-08-27T04:10:43.968Z,89.67
2022-08-27T04:11:43.959Z,89.67
2022-08-27T04:12:43.926Z,89.77
2022-08-27T04:13:43.929Z,89.77
2022-08-27T04:14:43.918Z,89.87
2022-08-27T04:15:43.936Z,89.97
2022-08-27T04:16:43.890Z,89.93
2022-08-27T04:17:43.879Z,90.03
2022-08-27T04:18:43.869Z,89.83
2022-08-27T04:19:43.859Z,89.83
2022-08-27T04:20:43.829Z,89.77
2022-08-27T04:21:43.839Z,89.63
2022-08-27T04:22:43.840Z,89.63
2022-08-27T04:23:43.852Z,89.63
2022-08-27T04:24:43.801Z,89.63
2022-08-27T04:25:43.792Z,89.63
2022-08-27T04:26:43.851Z,89.63
2022-08-27T04:27:43.762Z,89.53
2022-08-27T04:28:44.778Z,89.63
2022-08-27T04:29:44.743Z,89.63
2022-08-27T04:30:43.732Z,89.73
2022-08-27T04:31:43.896Z,89.83
2022-08-27T04:32:43.722Z,89.83
2022-08-27T04:33:43.704Z,89.83
2022-08-27T04:34:44.686Z,89.83
2022-08-27T04:35:43.675Z,89.93
2022-08-27T04:36:43.674Z,89.93
2022-08-27T04:37:43.655Z,89.93
2022-08-27T04:38:43.646Z,89.93
2022-08-27T04:39:46.569Z,89.83
2022-08-27T04:40:44.627Z,89.73
2022-08-27T04:41:43.626Z,89.87
2022-08-27T04:42:43.596Z,89.83
2022-08-27T04:43:43.597Z,89.83
2022-08-27T04:44:43.607Z,89.97
2022-08-27T04:45:43.568Z,89.87
2022-08-27T04:46:49.274Z,89.87
2022-08-27T04:47:44.548Z,89.87
2022-08-27T04:48:43.529Z,89.87
2022-08-27T04:49:43.529Z,89.77
2022-08-27T04:50:43.511Z,89.77
2022-08-27T04:51:43.517Z,89.77
2022-08-27T04:52:43.489Z,89.77
2022-08-27T04:53:43.479Z,89.87
2022-08-27T04:54:43.460Z,89.87
2022-08-27T04:55:43.466Z,89.87
2022-08-27T04:56:43.450Z,89.87
2022-08-27T04:57:43.430Z,89.87
2022-08-27T04:58:43.424Z,89.77
2022-08-27T04:59:43.432Z,89.67
2022-08-27T05:00:43.401Z,89.67
2022-08-27T05:01:43.441Z,89.67
2022-08-27T05:02:43.383Z,89.67
2022-08-27T05:03:43.365Z,89.67
2022-08-27T05:04:43.417Z,89.67
2022-08-27T05:05:43.403Z,89.57
2022-08-27T05:06:43.343Z,89.26
2022-08-27T05:07:43.324Z,89.06
2022-08-27T05:08:43.366Z,88.96
2022-08-27T05:09:43.304Z,89.06
2022-08-27T05:10:43.294Z,89.26
2022-08-27T05:11:43.287Z,89.17
2022-08-27T05:12:43.266Z,89.26
2022-08-27T05:13:43.262Z,89.47
2022-08-27T05:14:43.248Z,89.67
2022-08-27T05:15:43.289Z,89.87
2022-08-27T05:16:43.264Z,89.97
2022-08-27T05:17:43.216Z,89.97
2022-08-27T05:18:48.258Z,89.87
2022-08-27T05:19:44.185Z,89.87
2022-08-27T05:20:43.188Z,90.07
2022-08-27T05:21:43.187Z,90.17
2022-08-27T05:22:43.158Z,90.17
2022-08-27T05:23:43.240Z,90.28
2022-08-27T05:24:46.047Z,90.28
2022-08-27T05:25:44.121Z,90.28
2022-08-27T05:26:43.142Z,90.48
2022-08-27T05:27:43.094Z,90.48
2022-08-27T05:28:43.091Z,90.48
2022-08-27T05:29:43.091Z,90.68
2022-08-27T05:30:43.102Z,90.78
2022-08-27T05:31:43.070Z,90.88
2022-08-27T05:32:43.043Z,90.88
2022-08-27T05:33:43.032Z,90.98
2022-08-27T05:34:43.033Z,91.08
2022-08-27T05:35:43.003Z,91.08
2022-08-27T05:36:47.947Z,91.08
2022-08-27T05:37:44.004Z,91.28
2022-08-27T05:38:42.984Z,91.38
2022-08-27T05:39:42.962Z,91.38
2022-08-27T05:40:42.960Z,91.69
2022-08-27T05:41:42.945Z,91.69
2022-08-27T05:42:42.934Z,91.78
2022-08-27T05:43:46.476Z,91.78
2022-08-27T05:44:43.915Z,91.78
2022-08-27T05:45:42.888Z,91.93
2022-08-27T05:46:42.915Z,92.03
2022-08-27T05:47:44.917Z,92.03
2022-08-27T05:48:42.866Z,92.03
2022-08-27T05:49:42.853Z,92.13
2022-08-27T05:50:42.845Z,92.23
2022-08-27T05:51:42.827Z,92.23
2022-08-27T05:52:42.818Z,92.23
2022-08-27T05:53:42.800Z,92.13
2022-08-27T05:54:42.790Z,92.13
2022-08-27T05:55:42.778Z,92.13
2022-08-27T05:56:42.779Z,92.23
2022-08-27T05:57:42.750Z,92.13
2022-08-27T05:58:42.749Z,92.13
2022-08-27T05:59:42.738Z,92.23
2022-08-27T06:00:42.720Z,92.13
2022-08-27T06:01:42.720Z,91.73
2022-08-27T06:02:42.794Z,91.53
2022-08-27T06:03:42.681Z,91.42
2022-08-27T06:04:42.681Z,91.53
2022-08-27T06:05:42.719Z,91.63
2022-08-27T06:06:42.683Z,91.73
2022-08-27T06:07:42.650Z,91.73
2022-08-27T06:08:42.642Z,91.73
2022-08-27T06:09:42.686Z,91.63
2022-08-27T06:10:42.638Z,91.63
2022-08-27T06:11:42.614Z,91.63
2022-08-27T06:12:42.590Z,91.53
2022-08-27T06:13:43.643Z,91.53
2022-08-27T06:14:42.574Z,91.42
2022-08-27T06:15:42.625Z,91.22
2022-08-27T06:16:42.559Z,90.92
2022-08-27T06:17:42.525Z,90.92
2022-08-27T06:18:42.518Z,90.82
2022-08-27T06:19:42.556Z,90.82
2022-08-27T06:20:42.505Z,90.72
2022-08-27T06:21:42.500Z,90.52
2022-08-27T06:22:42.478Z,90.42
2022-08-27T06:23:42.469Z,90.42
2022-08-27T06:24:42.467Z,90.52
2022-08-27T06:25:42.440Z,90.42
2022-08-27T06:26:42.447Z,90.52
2022-08-27T06:27:42.447Z,90.72
2022-08-27T06:28:42.418Z,90.82
2022-08-27T06:29:42.415Z,90.92
2022-08-27T06:30:42.393Z,91.13
2022-08-27T06:31:42.390Z,91.13
2022-08-27T06:32:42.362Z,91.22
2022-08-27T06:33:42.352Z,91.38
2022-08-27T06:34:42.350Z,91.49
2022-08-27T06:35:42.330Z,91.28
2022-08-27T06:36:42.329Z,91.28
2022-08-27T06:37:42.341Z,91.28
2022-08-27T06:38:42.311Z,91.33
2022-08-27T06:39:42.292Z,91.02
2022-08-27T06:40:42.293Z,91.22
2022-08-27T06:41:42.281Z,91.42
2022-08-27T06:42:42.333Z,91.53
2022-08-27T06:43:42.256Z,91.83
2022-08-27T06:44:42.259Z,91.83
2022-08-27T06:45:42.240Z,91.63
2022-08-27T06:46:42.309Z,91.53
2022-08-27T06:47:42.196Z,91.63
2022-08-27T06:48:42.193Z,91.73
2022-08-27T06:49:43.467Z,91.83
2022-08-27T06:50:42.176Z,92.03
2022-08-27T06:51:42.156Z,91.93
2022-08-27T06:52:42.145Z,91.93
2022-08-27T06:53:42.147Z,92.13
2022-08-27T06:54:42.138Z,92.23
2022-08-27T06:55:42.108Z,92.13
2022-08-27T06:56:42.150Z,92.03
2022-08-27T06:57:42.081Z,91.73
2022-08-27T06:58:42.077Z,91.42
2022-08-27T06:59:42.060Z,91.42
2022-08-27T07:00:44.989Z,91.42
2022-08-27T07:01:43.096Z,91.53
2022-08-27T07:02:42.085Z,91.57
2022-08-27T07:03:42.117Z,91.73
2022-08-27T07:04:42.011Z,91.93
2022-08-27T07:05:41.989Z,92.23
2022-08-27T07:06:41.996Z,92.33
2022-08-27T07:07:46.692Z,92.13
2022-08-27T07:08:42.963Z,91.63
2022-08-27T07:09:41.941Z,91.57
2022-08-27T07:10:42.055Z,91.57
2022-08-27T07:11:41.941Z,91.77
2022-08-27T07:12:41.921Z,91.87
2022-08-27T07:13:41.903Z,91.97
2022-08-27T07:14:41.902Z,92.07
2022-08-27T07:15:41.928Z,92.27
2022-08-27T07:16:41.882Z,92.38
2022-08-27T07:17:41.965Z,92.43
2022-08-27T07:18:41.834Z,92.63
2022-08-27T07:19:41.872Z,92.54
2022-08-27T07:20:41.836Z,92.03
2022-08-27T07:21:41.833Z,92.13
2022-08-27T07:22:41.804Z,92.43
2022-08-27T07:23:41.794Z,92.63
2022-08-27T07:24:41.787Z,92.43
2022-08-27T07:25:41.776Z,92.13
2022-08-27T07:26:41.776Z,92.23
2022-08-27T07:27:41.745Z,92.33
2022-08-27T07:28:41.755Z,92.23
2022-08-27T07:29:41.726Z,92.23
2022-08-27T07:30:41.744Z,92.13
2022-08-27T07:31:41.717Z,92.13
2022-08-27T07:32:41.687Z,92.23
2022-08-27T07:33:45.369Z,91.83
2022-08-27T07:34:42.687Z,91.67
2022-08-27T07:35:41.659Z,91.77
2022-08-27T07:36:41.648Z,91.87
2022-08-27T07:37:41.648Z,92.18
2022-08-27T07:38:41.627Z,92.54
2022-08-27T07:39:41.678Z,92.74
2022-08-27T07:40:41.610Z,92.74
2022-08-27T07:41:41.620Z,92.33
2022-08-27T07:42:41.589Z,92.23
2022-08-27T07:43:41.586Z,92.33
2022-08-27T07:44:41.562Z,92.33
2022-08-27T07:45:41.590Z,92.33
2022-08-27T07:46:45.705Z,92.43
2022-08-27T07:47:42.573Z,92.63
2022-08-27T07:48:41.512Z,92.74
2022-08-27T07:49:41.515Z,92.43
2022-08-27T07:50:41.503Z,92.33
2022-08-27T07:51:41.509Z,92.33
2022-08-27T07:52:41.534Z,92.33
2022-08-27T07:53:41.495Z,92.03
2022-08-27T07:54:41.455Z,91.73
2022-08-27T07:55:41.442Z,91.53
2022-08-27T07:56:41.447Z,91.53
2022-08-27T07:57:41.434Z,91.63
2022-08-27T07:58:41.432Z,91.63
2022-08-27T07:59:41.397Z,91.53
2022-08-27T08:00:41.383Z,91.53
2022-08-27T08:01:41.434Z,91.53
2022-08-27T08:02:41.414Z,91.42
2022-08-27T08:03:41.347Z,91.22
2022-08-27T08:04:41.340Z,90.92
2022-08-27T08:05:41.327Z,90.82
2022-08-27T08:06:41.328Z,90.92
2022-08-27T08:07:41.300Z,91.02
2022-08-27T08:08:41.300Z,90.92
2022-08-27T08:09:41.279Z,90.72
2022-08-27T08:10:41.278Z,90.72
2022-08-27T08:11:41.272Z,90.82
2022-08-27T08:12:41.250Z,90.82
2022-08-27T08:13:41.240Z,90.82
2022-08-27T08:14:41.241Z,90.82
2022-08-27T08:15:41.231Z,90.72
2022-08-27T08:16:41.477Z,90.42
2022-08-27T08:17:41.193Z,90.42
2022-08-27T08:18:41.192Z,90.52
2022-08-27T08:19:41.209Z,90.62
2022-08-27T08:20:57.458Z,90.58
2022-08-27T08:21:42.153Z,90.37
2022-08-27T08:22:41.254Z,90.17
2022-08-27T08:23:41.134Z,90.17
2022-08-27T08:24:41.113Z,90.17
2022-08-27T08:25:41.115Z,90.07
2022-08-27T08:26:41.144Z,89.87
2022-08-27T08:27:41.083Z,89.87
2022-08-27T08:28:41.096Z,89.97
2022-08-27T08:29:41.085Z,89.87
2022-08-27T08:30:41.113Z,89.87
2022-08-27T08:31:41.067Z,89.87
2022-08-27T08:32:41.059Z,89.97
2022-08-27T08:33:41.024Z,89.97
2022-08-27T08:34:41.016Z,89.67
2022-08-27T08:35:41.321Z,89.67
2022-08-27T08:36:40.997Z,89.67
2022-08-27T08:37:41.012Z,89.87
2022-08-27T08:38:40.997Z,89.97
2022-08-27T08:39:40.950Z,90.07
2022-08-27T08:40:40.947Z,89.97
2022-08-27T08:41:40.958Z,89.77
2022-08-27T08:42:40.928Z,89.67
2022-08-27T08:43:40.911Z,89.17
2022-08-27T08:44:40.920Z,88.82
2022-08-27T08:45:40.906Z,88.86
2022-08-27T08:46:40.922Z,88.92
2022-08-27T08:47:40.917Z,89.12
2022-08-27T08:48:40.852Z,89.23
2022-08-27T08:49:40.855Z,89.23
2022-08-27T08:50:40.833Z,89.23
2022-08-27T08:51:40.834Z,89.03
2022-08-27T08:52:40.814Z,88.82
2022-08-27T08:53:40.805Z,88.82
2022-08-27T08:54:40.794Z,88.92
2022-08-27T08:55:40.775Z,88.92
2022-08-27T08:56:40.775Z,88.92
2022-08-27T08:57:40.753Z,88.72
2022-08-27T08:58:40.745Z,88.72
2022-08-27T08:59:40.734Z,88.42
2022-08-27T09:00:40.731Z,88.42
2022-08-27T09:01:40.837Z,88.72
2022-08-27T09:02:40.708Z,88.82
2022-08-27T09:03:40.735Z,89.03
2022-08-27T09:04:40.701Z,89.03
2022-08-27T09:05:40.685Z,88.82
2022-08-27T09:06:40.669Z,88.72
2022-08-27T09:07:40.645Z,88.52
2022-08-27T09:08:41.957Z,88.32
2022-08-27T09:09:40.618Z,88.52
2022-08-27T09:10:40.618Z,88.52
2022-08-27T09:11:40.620Z,88.52
2022-08-27T09:12:40.589Z,88.72
2022-08-27T09:13:40.579Z,88.72
2022-08-27T09:14:40.575Z,88.82
2022-08-27T09:15:40.567Z,88.92
2022-08-27T09:16:40.638Z,89.23
2022-08-27T09:17:40.551Z,89.32
2022-08-27T09:18:40.919Z,89.23
2022-08-27T09:19:40.510Z,89.12
2022-08-27T09:20:40.503Z,88.92
2022-08-27T09:21:40.502Z,88.82
2022-08-27T09:22:40.482Z,88.82
2022-08-27T09:23:40.502Z,88.82
2022-08-27T09:24:40.453Z,88.82
2022-08-27T09:25:40.444Z,88.92
2022-08-27T09:26:40.435Z,88.88
2022-08-27T09:27:40.432Z,88.68
2022-08-27T09:28:40.415Z,88.48
2022-08-27T09:29:40.395Z,88.48
2022-08-27T09:30:40.414Z,88.18
2022-08-27T09:31:40.383Z,87.98
2022-08-27T09:32:40.384Z,87.98
2022-08-27T09:33:44.628Z,88.07
2022-08-27T09:34:41.348Z,88.07
2022-08-27T09:35:40.346Z,88.18
2022-08-27T09:36:40.326Z,88.28
2022-08-27T09:37:40.329Z,88.38
2022-08-27T09:38:40.417Z,87.98
2022-08-27T09:39:40.288Z,87.87
2022-08-27T09:40:40.367Z,87.87
2022-08-27T09:41:40.317Z,88.07
2022-08-27T09:42:40.269Z,88.38
2022-08-27T09:43:40.297Z,88.48
2022-08-27T09:44:40.240Z,88.58
2022-08-27T09:45:40.270Z,88.78
2022-08-27T09:46:40.240Z,88.88
2022-08-27T09:47:40.210Z,88.98
2022-08-27T09:48:40.191Z,89.08
2022-08-27T09:49:40.181Z,89.18
2022-08-27T09:50:43.504Z,89.28
2022-08-27T09:51:40.151Z,89.39
2022-08-27T09:52:40.223Z,89.59
2022-08-27T09:53:40.147Z,89.69
2022-08-27T09:54:40.122Z,89.79
2022-08-27T09:55:40.554Z,89.99
2022-08-27T09:56:40.103Z,90.19
2022-08-27T09:57:40.222Z,90.39
2022-08-27T09:58:40.135Z,90.49
2022-08-27T09:59:40.065Z,90.39
2022-08-27T10:00:40.063Z,90.39
2022-08-27T10:01:40.114Z,90.49
2022-08-27T10:02:40.055Z,90.59
2022-08-27T10:03:40.050Z,90.79
2022-08-27T10:04:50.410Z,91.09
2022-08-27T10:05:41.005Z,90.99
2022-08-27T10:06:39.998Z,90.99
2022-08-27T10:07:40.006Z,90.99
2022-08-27T10:08:39.983Z,90.99
2022-08-27T10:09:39.960Z,91.19
2022-08-27T10:10:40.725Z,91.19
2022-08-27T10:11:39.938Z,91.09
2022-08-27T10:12:39.966Z,91.09
2022-08-27T10:13:39.933Z,90.79
2022-08-27T10:14:39.915Z,90.79
2022-08-27T10:15:43.268Z,90.99
2022-08-27T10:16:39.935Z,90.99
2022-08-27T10:17:39.882Z,91.09
2022-08-27T10:18:39.851Z,91.09
2022-08-27T10:19:39.844Z,90.89
2022-08-27T10:20:39.842Z,90.79
2022-08-27T10:21:39.821Z,90.79
2022-08-27T10:22:39.831Z,90.89
2022-08-27T10:23:39.804Z,90.89
2022-08-27T10:24:39.792Z,91.19
2022-08-27T10:25:39.773Z,91.39
2022-08-27T10:26:39.770Z,91.60
2022-08-27T10:27:39.763Z,91.80
2022-08-27T10:28:39.755Z,92.00
2022-08-27T10:29:39.735Z,92.20
2022-08-27T10:30:39.726Z,92.40
2022-08-27T10:31:39.765Z,92.71
2022-08-27T10:32:39.715Z,93.21
2022-08-27T10:33:39.685Z,93.15
2022-08-27T10:34:39.706Z,93.35
2022-08-27T10:35:46.792Z,94.67
2022-08-27T10:36:40.657Z,94.06
2022-08-27T10:37:40.590Z,94.16
2022-08-27T10:38:44.438Z,94.46
2022-08-27T10:39:40.627Z,94.71
2022-08-27T10:40:39.691Z,94.71
2022-08-27T10:41:39.600Z,94.91
2022-08-27T10:42:39.615Z,96.08
2022-08-27T10:43:39.579Z,96.17
2022-08-27T10:44:39.580Z,95.47
2022-08-27T10:45:39.588Z,95.17
2022-08-27T10:46:39.549Z,95.27
2022-08-27T10:47:40.550Z,94.96
2022-08-27T10:48:39.527Z,94.56
2022-08-27T10:49:39.510Z,94.51
2022-08-27T10:50:39.521Z,94.20
2022-08-27T10:51:39.494Z,94.56
2022-08-27T10:52:39.494Z,94.96
2022-08-27T10:53:39.463Z,95.07
2022-08-27T10:54:39.462Z,94.06
2022-08-27T10:55:39.463Z,93.26
2022-08-27T10:56:39.442Z,93.76
2022-08-27T10:57:55.157Z,94.01
2022-08-27T10:58:40.423Z,93.11
2022-08-27T10:59:39.394Z,93.11
2022-08-27T11:00:39.402Z,92.30
2022-08-27T11:01:39.394Z,91.90
2022-08-27T11:02:39.437Z,91.19
2022-08-27T11:03:39.652Z,91.90
2022-08-27T11:04:39.389Z,91.86
2022-08-27T11:05:39.344Z,92.46
2022-08-27T11:06:39.333Z,91.25
2022-08-27T11:07:39.328Z,89.95
2022-08-27T11:08:39.315Z,89.79
2022-08-27T11:09:39.329Z,90.29
2022-08-27T11:10:39.298Z,90.79
2022-08-27T11:12:12.685Z,90.39
2022-08-27T11:12:40.269Z,90.19
2022-08-27T11:13:39.278Z,90.39
2022-08-27T11:14:39.249Z,90.29
2022-08-27T11:15:39.238Z,90.99
2022-08-27T11:16:43.388Z,90.29
2022-08-27T11:17:40.220Z,89.54
2022-08-27T11:18:39.201Z,89.34
2022-08-27T11:19:39.192Z,90.34
2022-08-27T11:20:39.172Z,88.49
2022-08-27T11:21:39.169Z,88.79
2022-08-27T11:22:39.183Z,88.09
2022-08-27T11:23:39.152Z,87.08
2022-08-27T11:24:39.135Z,87.08
2022-08-27T11:25:39.133Z,88.55
2022-08-27T11:26:39.124Z,87.55
2022-08-27T11:27:39.119Z,86.60
2022-08-27T11:28:39.118Z,86.40
2022-08-27T11:29:39.091Z,84.99
2022-08-27T11:30:39.077Z,84.49
2022-08-27T11:31:39.091Z,84.75
2022-08-27T11:32:39.067Z,83.75
2022-08-27T11:33:42.723Z,83.75
2022-08-27T11:34:40.030Z,83.75
2022-08-27T11:35:39.008Z,83.75
2022-08-27T11:36:39.022Z,82.89
2022-08-27T11:37:39.028Z,83.09
2022-08-27T11:38:38.988Z,83.49
2022-08-27T11:39:38.968Z,83.69
2022-08-27T11:40:39.037Z,83.79
2022-08-27T11:41:44.706Z,83.63
2022-08-27T11:42:39.951Z,84.03
2022-08-27T11:43:38.931Z,83.73
2022-08-27T11:44:38.929Z,84.33
2022-08-27T11:45:38.908Z,84.13
2022-08-27T11:46:39.024Z,83.83
2022-08-27T11:47:39.073Z,83.83
2022-08-27T11:48:38.885Z,83.93
2022-08-27T11:49:38.863Z,84.43
2022-08-27T11:50:38.853Z,84.33
2022-08-27T11:51:38.832Z,85.03
2022-08-27T11:52:38.856Z,85.44
2022-08-27T11:53:51.851Z,84.49
2022-08-27T11:54:39.823Z,84.99
2022-08-27T11:55:38.804Z,84.49
2022-08-27T11:56:38.796Z,84.49
2022-08-27T11:57:38.778Z,84.89
2022-08-27T11:58:52.826Z,84.29
2022-08-27T11:59:39.770Z,83.79
2022-08-27T12:00:38.748Z,84.49
2022-08-27T12:01:38.742Z,84.49
2022-08-27T12:02:38.743Z,84.09
2022-08-27T12:03:38.789Z,83.99
2022-08-27T12:04:38.783Z,84.59
2022-08-27T12:05:38.688Z,84.74
2022-08-27T12:06:38.668Z,84.13
2022-08-27T12:07:38.669Z,84.83
2022-08-27T12:08:38.652Z,84.59
2022-08-27T12:09:38.630Z,84.39
2022-08-27T12:10:38.629Z,83.69
2022-08-27T12:11:38.614Z,83.53
2022-08-27T12:12:38.611Z,83.79
2022-08-27T12:13:38.597Z,83.93
2022-08-27T12:14:38.582Z,83.53
2022-08-27T12:15:38.561Z,84.03
2022-08-27T12:16:38.593Z,83.53
2022-08-27T12:17:38.564Z,83.53
2022-08-27T12:18:38.532Z,83.23
2022-08-27T12:19:38.528Z,83.43
2022-08-27T12:20:38.515Z,83.33
2022-08-27T12:21:38.503Z,83.43
2022-08-27T12:22:39.646Z,83.23
2022-08-27T12:23:38.484Z,83.83
2022-08-27T12:24:38.466Z,84.43
2022-08-27T12:25:38.478Z,83.69
2022-08-27T12:26:38.445Z,82.58
2022-08-27T12:27:38.437Z,82.08
2022-08-27T12:28:38.455Z,82.78
2022-08-27T12:29:39.369Z,81.98
2022-08-27T12:30:39.405Z,81.68
2022-08-27T12:31:38.423Z,81.78
2022-08-27T12:32:38.388Z,81.41
2022-08-27T12:33:38.371Z,81.68
2022-08-27T12:34:38.357Z,81.72
2022-08-27T12:35:38.343Z,82.12
2022-08-27T12:36:38.330Z,82.18
2022-08-27T12:37:38.440Z,81.98
2022-08-27T12:38:38.308Z,82.28
2022-08-27T12:39:38.291Z,81.98
2022-08-27T12:40:38.382Z,82.28
2022-08-27T12:41:44.300Z,82.18
2022-08-27T12:42:39.270Z,82.38
2022-08-27T12:43:38.243Z,82.58
2022-08-27T12:44:38.242Z,82.38
2022-08-27T12:45:38.223Z,82.18
2022-08-27T12:46:38.281Z,81.84
2022-08-27T12:47:38.211Z,81.04
2022-08-27T12:48:38.193Z,80.43
2022-08-27T12:49:39.652Z,80.33
2022-08-27T12:50:38.175Z,80.63
2022-08-27T12:51:38.154Z,80.33
2022-08-27T12:52:38.157Z,80.90